Time;durP1;ratioP1;P1;durP2;ratioP2;P2;SDS_P1;SDS_P2;PMS_P1;PMS_P2;Temp;Humidity;BMP_temperature;BMP_pressure;BME280_temperature;BME280_humidity;BME280_pressure;Samples;Min_cycle;Max_cycle;Signal;HPM_P1;HPM_P2
2021/10/10 00:00:58;;;;;;;19.47;10.00;;;;;;;8.31;80.11;97156.22;5037848;28;20216;-72
2021/10/10 00:03:26;;;;;;;21.90;11.03;;;;;;;8.31;82.69;97155.38;5036783;28;20205;-72
2021/10/10 00:05:53;;;;;;;22.80;11.03;;;;;;;8.14;82.14;97163.97;5035935;28;20235;-72
2021/10/10 00:08:20;;;;;;;21.63;10.53;;;;;;;7.93;81.89;97166.72;5034277;28;20216;-72
2021/10/10 00:10:46;;;;;;;21.10;10.83;;;;;;;7.80;83.57;97160.06;5036545;28;20222;-72
2021/10/10 00:13:13;;;;;;;23.23;11.43;;;;;;;7.69;85.45;97159.38;5036675;28;20209;-72
2021/10/10 00:15:40;;;;;;;23.03;11.77;;;;;;;7.56;86.81;97166.69;5036227;28;20209;-72
2021/10/10 00:18:06;;;;;;;27.30;12.23;;;;;;;7.49;87.50;97163.78;5036886;28;20220;-72
2021/10/10 00:20:34;;;;;;;28.13;12.97;;;;;;;7.76;87.59;97163.94;5036555;28;20201;-72
2021/10/10 00:23:01;;;;;;;23.90;11.93;;;;;;;7.67;86.86;97154.28;5036414;28;20216;-72
2021/10/10 00:25:28;;;;;;;27.67;12.40;;;;;;;7.70;87.44;97159.25;5036055;28;21059;-72
2021/10/10 00:27:56;;;;;;;26.70;11.93;;;;;;;7.64;87.11;97159.81;5036609;28;20759;-72
2021/10/10 00:30:23;;;;;;;24.80;12.13;;;;;;;7.71;87.17;97153.03;5035907;28;20616;-72
2021/10/10 00:32:49;;;;;;;34.93;12.40;;;;;;;7.53;88.36;97156.47;5037201;28;20207;-72
2021/10/10 00:35:17;;;;;;;27.90;12.43;;;;;;;7.54;88.63;97152.91;5036223;28;20225;-72
2021/10/10 00:37:46;;;;;;;22.90;11.77;;;;;;;7.68;88.49;97149.88;5035144;28;20252;-72
2021/10/10 00:40:14;;;;;;;27.13;12.80;;;;;;;7.68;87.86;97140.19;5036354;28;20216;-72
2021/10/10 00:42:40;;;;;;;29.10;12.67;;;;;;;7.72;86.39;97138.13;5036741;28;20243;-72
2021/10/10 00:45:08;;;;;;;21.47;11.47;;;;;;;7.96;84.98;97140.19;5036076;28;20233;-72
2021/10/10 00:47:35;;;;;;;25.07;11.13;;;;;;;7.82;83.77;97139.78;5035341;28;20197;-72
2021/10/10 00:50:02;;;;;;;28.73;12.27;;;;;;;7.87;84.33;97138.41;5036174;28;20212;-72
2021/10/10 00:52:30;;;;;;;21.83;12.23;;;;;;;7.96;85.80;97139.38;5036071;28;20201;-72
2021/10/10 00:54:59;;;;;;;25.33;11.97;;;;;;;8.00;85.63;97135.50;5036274;28;20221;-72
2021/10/10 00:57:27;;;;;;;23.43;11.73;;;;;;;8.01;84.82;97131.91;5035505;28;20227;-72
2021/10/10 00:59:56;;;;;;;28.43;12.33;;;;;;;7.82;85.07;97137.16;5036583;28;20208;-72
2021/10/10 01:02:22;;;;;;;28.03;12.37;;;;;;;7.85;83.81;97144.75;5036102;28;20204;-72
2021/10/10 01:04:49;;;;;;;26.23;12.70;;;;;;;7.94;83.40;97141.28;5036157;28;20225;-72
2021/10/10 01:07:15;;;;;;;27.90;12.30;;;;;;;7.63;83.53;97141.59;5035593;28;20762;-72
2021/10/10 01:09:42;;;;;;;24.23;11.20;;;;;;;7.40;83.62;97143.63;5033928;28;20205;-72
2021/10/10 01:12:10;;;;;;;23.93;11.70;;;;;;;7.64;84.86;97144.06;5035543;28;20216;-72
2021/10/10 01:14:38;;;;;;;24.70;11.83;;;;;;;7.49;85.65;97145.44;5036210;28;20233;-72
2021/10/10 01:17:05;;;;;;;26.23;12.10;;;;;;;7.56;84.86;97148.31;5035182;28;20244;-72
2021/10/10 01:19:33;;;;;;;23.97;11.90;;;;;;;7.40;84.36;97141.00;5036113;28;20578;-72
2021/10/10 01:22:02;;;;;;;26.77;12.03;;;;;;;7.67;84.52;97135.09;5036259;28;20877;-72
2021/10/10 01:24:28;;;;;;;26.20;11.63;;;;;;;7.60;84.12;97137.44;5035177;28;20221;-72
2021/10/10 01:26:55;;;;;;;28.10;12.07;;;;;;;7.53;84.73;97141.56;5035169;28;20578;-72
2021/10/10 01:29:21;;;;;;;27.83;12.17;;;;;;;7.52;85.13;97136.47;5036049;28;20205;-72
2021/10/10 01:31:49;;;;;;;26.73;13.27;;;;;;;7.65;85.80;97132.63;5036368;28;20235;-72
2021/10/10 01:34:16;;;;;;;32.30;13.23;;;;;;;7.62;84.25;97130.25;5035377;28;20225;-72
2021/10/10 01:36:43;;;;;;;23.63;11.57;;;;;;;7.69;84.07;97134.00;5035436;28;20217;-72
2021/10/10 01:39:11;;;;;;;24.43;11.80;;;;;;;7.67;83.85;97133.28;5035785;28;20205;-72
2021/10/10 01:41:37;;;;;;;22.23;11.00;;;;;;;7.57;82.97;97134.25;5035738;28;20211;-72
2021/10/10 01:44:04;;;;;;;25.87;12.20;;;;;;;7.54;82.23;97129.28;5035498;28;20569;-72
2021/10/10 01:46:31;;;;;;;27.73;12.50;;;;;;;7.54;82.81;97134.53;5035224;28;20189;-72
2021/10/10 01:48:58;;;;;;;28.10;12.83;;;;;;;7.45;85.38;97130.94;5036121;28;20212;-72
2021/10/10 01:51:24;;;;;;;25.83;12.60;;;;;;;7.45;85.15;97123.06;5035468;28;20216;-72
2021/10/10 01:53:51;;;;;;;25.37;13.00;;;;;;;7.50;84.35;97123.47;5035503;28;20237;-72
2021/10/10 01:56:19;;;;;;;22.73;11.57;;;;;;;7.51;82.80;97122.53;5034653;28;20241;-72
2021/10/10 01:58:45;;;;;;;24.27;11.40;;;;;;;7.34;83.31;97124.97;5035521;28;20228;-72
2021/10/10 02:01:12;;;;;;;26.20;11.13;;;;;;;7.46;83.33;97119.50;5035472;28;20216;-72
2021/10/10 02:03:38;;;;;;;27.93;11.73;;;;;;;7.23;82.24;97119.03;5039235;28;20980;-72
2021/10/10 02:06:05;;;;;;;24.43;11.60;;;;;;;7.18;82.46;97116.81;5038513;28;20197;-72
2021/10/10 02:08:32;;;;;;;25.13;11.37;;;;;;;7.11;82.43;97117.50;5036764;28;20677;-72
2021/10/10 02:10:58;;;;;;;22.13;10.97;;;;;;;7.11;81.62;97112.25;5039054;28;20205;-72
2021/10/10 02:13:26;;;;;;;19.97;9.83;;;;;;;7.19;81.38;97115.03;5039147;28;20214;-72
2021/10/10 02:15:53;;;;;;;25.03;12.03;;;;;;;7.13;82.43;97111.16;5038165;28;20216;-72
2021/10/10 02:18:20;;;;;;;27.60;12.17;;;;;;;7.30;81.78;97111.31;5038924;28;20225;-72
2021/10/10 02:20:47;;;;;;;22.97;11.20;;;;;;;7.00;82.99;97105.34;5032156;28;20205;-72
2021/10/10 02:23:13;;;;;;;27.53;11.73;;;;;;;7.03;82.62;97102.44;5038379;28;20215;-72
2021/10/10 02:25:40;;;;;;;23.27;11.70;;;;;;;7.17;82.36;97101.25;5038676;28;20212;-72
2021/10/10 02:28:07;;;;;;;24.00;11.90;;;;;;;7.01;83.14;97101.72;5039199;28;21281;-72
2021/10/10 02:30:35;;;;;;;22.77;11.73;;;;;;;7.24;82.43;97099.72;5039089;28;20209;-72
2021/10/10 02:33:01;;;;;;;32.00;12.20;;;;;;;7.07;83.17;97103.00;5039022;28;20212;-72
2021/10/10 02:35:28;;;;;;;39.20;12.50;;;;;;;7.01;83.19;97100.91;5038651;28;20225;-72
2021/10/10 02:37:54;;;;;;;24.13;11.90;;;;;;;6.95;83.18;97098.81;5038548;28;20240;-72
2021/10/10 02:40:21;;;;;;;29.73;11.67;;;;;;;7.09;83.66;97109.78;5038728;28;20213;-72
2021/10/10 02:42:47;;;;;;;28.03;13.07;;;;;;;7.16;84.32;97108.25;5040173;28;20611;-72
2021/10/10 02:45:14;;;;;;;24.60;12.60;;;;;;;7.10;84.09;97100.94;5038667;28;20224;-72
2021/10/10 02:47:42;;;;;;;28.50;13.00;;;;;;;7.26;84.97;97105.69;5037656;28;20193;-72
2021/10/10 02:50:09;;;;;;;27.30;12.90;;;;;;;7.18;84.46;97102.88;5038300;28;20209;-72
2021/10/10 02:52:36;;;;;;;31.07;12.80;;;;;;;7.16;84.25;97102.19;5039494;28;20216;-72
2021/10/10 02:55:02;;;;;;;27.13;13.17;;;;;;;7.09;85.23;97101.06;5038208;28;20217;-72
2021/10/10 02:57:29;;;;;;;27.13;13.47;;;;;;;7.15;85.27;97095.28;5038113;28;20229;-72
2021/10/10 02:59:55;;;;;;;33.23;14.93;;;;;;;7.14;85.85;97096.25;5038222;28;20224;-72
2021/10/10 03:02:22;;;;;;;35.50;14.93;;;;;;;7.17;85.03;97096.81;5038159;28;20611;-72
2021/10/10 03:04:49;;;;;;;32.27;12.67;;;;;;;7.26;83.07;97101.25;5038352;28;20224;-72
2021/10/10 03:07:16;;;;;;;29.57;13.67;;;;;;;7.13;83.63;97094.59;5037209;28;20212;-72
2021/10/10 03:09:42;;;;;;;33.10;12.97;;;;;;;7.18;83.74;97092.41;5034618;28;20197;-72
2021/10/10 03:12:09;;;;;;;29.57;12.80;;;;;;;7.11;82.86;97084.25;5038765;28;20209;-72
2021/10/10 03:14:35;;;;;;;24.07;12.10;;;;;;;7.01;81.57;97086.00;5038094;28;20225;-72
2021/10/10 03:17:02;;;;;;;26.77;12.27;;;;;;;6.92;80.75;97089.44;5037225;28;20225;-72
2021/10/10 03:19:29;;;;;;;29.13;12.63;;;;;;;6.85;84.22;97079.66;5038670;28;20209;-72
2021/10/10 03:21:57;;;;;;;29.63;13.07;;;;;;;7.00;83.03;97078.28;5038247;28;20209;-72
2021/10/10 03:24:23;;;;;;;25.37;12.63;;;;;;;6.73;82.76;97080.72;5038361;28;20233;-72
2021/10/10 03:26:50;;;;;;;26.37;13.37;;;;;;;6.81;83.91;97086.94;5036860;28;20804;-72
2021/10/10 03:29:16;;;;;;;27.60;13.63;;;;;;;6.91;84.14;97079.09;5037637;28;20213;-72
2021/10/10 03:31:43;;;;;;;32.93;14.00;;;;;;;6.84;83.64;97083.22;5037600;28;20208;-72
2021/10/10 03:34:09;;;;;;;30.57;12.80;;;;;;;6.91;82.79;97084.34;5038237;28;20228;-72
2021/10/10 03:36:36;;;;;;;25.63;13.03;;;;;;;6.94;82.95;97076.22;5036718;28;20212;-72
2021/10/10 03:39:04;;;;;;;29.97;13.27;;;;;;;7.01;83.29;97083.38;5037698;28;20201;-72
2021/10/10 03:41:30;;;;;;;23.03;12.53;;;;;;;6.75;84.66;97074.38;5037904;28;20213;-72
2021/10/10 03:43:57;;;;;;;30.03;13.90;;;;;;;6.80;84.76;97080.03;5038034;28;20229;-72
2021/10/10 03:46:23;;;;;;;31.63;14.40;;;;;;;6.85;86.30;97080.47;5036621;28;20579;-72
2021/10/10 03:48:50;;;;;;;32.93;14.70;;;;;;;6.75;87.93;97074.38;5037321;28;20197;-72
2021/10/10 03:51:16;;;;;;;33.13;15.83;;;;;;;6.74;88.75;97079.75;5038078;28;20205;-72
2021/10/10 03:54:13;;;;;;;37.37;16.47;;;;;;;6.76;88.38;97080.47;5037694;28;20228;-72
2021/10/10 03:56:41;;;;;;;39.30;15.40;;;;;;;6.86;88.60;97081.28;5036637;28;20313;-72
2021/10/10 03:59:08;;;;;;;32.00;15.27;;;;;;;6.77;89.20;97071.63;5037557;28;20213;-72
2021/10/10 04:01:37;;;;;;;34.67;16.30;;;;;;;6.71;89.63;97067.75;5037392;28;20212;-72
2021/10/10 04:04:04;;;;;;;38.17;16.77;;;;;;;6.88;89.63;97074.97;5036874;28;20229;-72
2021/10/10 04:06:31;;;;;;;39.47;15.80;;;;;;;6.87;88.82;97078.56;5036979;28;20220;-72
2021/10/10 04:08:57;;;;;;;35.10;15.50;;;;;;;6.81;88.41;97073.84;5036890;28;20205;-72
2021/10/10 04:11:24;;;;;;;37.23;15.77;;;;;;;6.79;89.18;97074.94;5036908;28;20201;-72
2021/10/10 04:13:52;;;;;;;36.47;16.00;;;;;;;6.84;89.77;97075.38;5037276;28;20232;-72
2021/10/10 04:16:18;;;;;;;33.83;15.20;;;;;;;6.74;89.03;97072.72;5033946;28;20216;-72
2021/10/10 04:18:45;;;;;;;35.90;15.67;;;;;;;6.88;87.82;97074.97;5037160;28;21059;-72
2021/10/10 04:21:11;;;;;;;35.13;15.90;;;;;;;6.81;86.93;97067.75;5037008;28;20212;-72
2021/10/10 04:23:38;;;;;;;33.17;15.53;;;;;;;7.00;86.58;97070.44;5036858;28;20229;-72
2021/10/10 04:26:04;;;;;;;31.97;14.40;;;;;;;7.01;85.56;97075.53;5035392;28;20673;-72
2021/10/10 04:28:31;;;;;;;31.50;15.23;;;;;;;7.00;85.30;97075.66;5036979;28;20216;-72
2021/10/10 04:30:59;;;;;;;33.27;15.30;;;;;;;7.26;84.39;97080.28;5036860;28;20213;-72
2021/10/10 04:33:25;;;;;;;29.50;14.30;;;;;;;6.98;85.75;97081.06;5037012;28;20577;-72
2021/10/10 04:35:52;;;;;;;32.73;14.63;;;;;;;6.99;84.90;97081.91;5035716;28;20213;-72
2021/10/10 04:38:18;;;;;;;29.50;14.37;;;;;;;6.98;85.95;97085.47;5036383;28;20221;-72
2021/10/10 04:40:45;;;;;;;33.73;15.03;;;;;;;6.86;85.98;97078.66;5036723;28;20201;-72
2021/10/10 04:43:11;;;;;;;34.13;15.40;;;;;;;6.72;85.41;97084.28;5036523;28;20205;-72
2021/10/10 04:45:38;;;;;;;32.73;14.60;;;;;;;6.65;86.35;97077.94;5035784;28;20669;-72
2021/10/10 04:48:07;;;;;;;32.50;15.33;;;;;;;6.85;86.41;97080.47;5036385;28;20205;-72
2021/10/10 04:50:33;;;;;;;34.13;15.97;;;;;;;6.71;86.53;97078.22;5036715;28;20201;-72
2021/10/10 04:53:00;;;;;;;32.03;16.23;;;;;;;6.53;88.48;97083.38;5036354;28;20213;-72
2021/10/10 04:55:27;;;;;;;34.37;15.70;;;;;;;6.56;87.39;97081.34;5036149;28;20225;-72
2021/10/10 04:57:53;;;;;;;37.07;15.77;;;;;;;6.62;87.92;97083.44;5036185;28;20572;-72
2021/10/10 05:00:20;;;;;;;34.17;16.80;;;;;;;6.57;88.01;97080.41;5036271;28;20213;-72
2021/10/10 05:02:46;;;;;;;35.50;16.03;;;;;;;6.64;87.96;97089.38;5037193;28;20208;-72
2021/10/10 05:05:14;;;;;;;36.50;15.77;;;;;;;6.63;87.79;97092.94;5036478;28;20247;-72
2021/10/10 05:07:41;;;;;;;32.97;15.53;;;;;;;6.62;87.10;97083.44;5034750;28;20202;-72
2021/10/10 05:10:08;;;;;;;36.27;16.13;;;;;;;6.75;86.22;97087.47;5036715;28;20219;-72
2021/10/10 05:12:36;;;;;;;32.17;15.07;;;;;;;6.71;84.54;97087.88;5036388;28;20951;-72
2021/10/10 05:15:02;;;;;;;33.10;14.37;;;;;;;6.69;83.46;97081.94;5035921;28;20243;-72
2021/10/10 05:17:29;;;;;;;32.27;14.00;;;;;;;6.72;82.85;97093.00;5035608;28;20224;-72
2021/10/10 05:19:55;;;;;;;32.40;13.40;;;;;;;6.56;82.14;97098.84;5036099;28;20220;-72
2021/10/10 05:22:23;;;;;;;27.60;12.87;;;;;;;6.81;81.03;97096.56;5035779;28;20201;-72
2021/10/10 05:24:50;;;;;;;28.77;12.63;;;;;;;6.61;80.82;97104.53;5035543;28;20229;-72
2021/10/10 05:27:17;;;;;;;29.10;12.73;;;;;;;6.67;80.73;97103.03;5035165;28;20221;-72
2021/10/10 05:29:44;;;;;;;27.30;12.27;;;;;;;6.62;79.71;97101.78;5036216;28;20696;-72
2021/10/10 05:32:10;;;;;;;29.20;13.10;;;;;;;6.48;79.23;97112.59;5036038;28;20209;-72
2021/10/10 05:34:37;;;;;;;27.83;13.23;;;;;;;6.17;80.74;97118.78;5035644;28;20307;-71
2021/10/10 05:37:03;;;;;;;28.20;12.23;;;;;;;6.14;79.91;97108.56;5036256;28;20411;-72
2021/10/10 05:39:33;;;;;;;26.73;12.27;;;;;;;6.21;79.61;97112.34;5039917;28;20231;-71
2021/10/10 05:41:59;;;;;;;22.60;11.83;;;;;;;5.89;79.41;97115.97;5040014;28;20204;-72
2021/10/10 05:44:26;;;;;;;25.40;12.03;;;;;;;5.49;80.67;97116.75;5040108;28;20221;-72
2021/10/10 05:46:53;;;;;;;25.13;12.03;;;;;;;5.81;80.46;97110.53;5038528;28;20271;-72
2021/10/10 05:49:19;;;;;;;21.80;11.73;;;;;;;5.91;80.11;97118.47;5039820;28;20200;-71
2021/10/10 05:51:46;;;;;;;25.67;11.33;;;;;;;6.03;79.40;97125.28;5039672;28;21035;-72
2021/10/10 05:54:15;;;;;;;24.17;11.03;;;;;;;6.12;78.84;97120.94;5039382;28;20278;-71
2021/10/10 05:56:44;;;;;;;22.87;11.57;;;;;;;6.15;79.20;97123.31;5038850;28;20292;-72
2021/10/10 05:59:14;;;;;;;22.83;11.33;;;;;;;5.92;80.44;97122.72;5039243;28;20319;-72
2021/10/10 06:01:40;;;;;;;21.83;11.27;;;;;;;5.68;79.60;97124.75;5039408;28;20216;-71
2021/10/10 06:04:07;;;;;;;26.40;11.67;;;;;;;5.82;80.27;97121.84;5039649;28;20240;-71
2021/10/10 06:06:34;;;;;;;23.63;11.80;;;;;;;5.73;81.19;97130.44;5038731;28;20197;-71
2021/10/10 06:09:00;;;;;;;26.20;11.80;;;;;;;5.58;80.76;97129.06;5040362;28;20212;-72
2021/10/10 06:11:28;;;;;;;27.90;12.50;;;;;;;5.97;80.18;97129.25;5039679;28;20208;-72
2021/10/10 06:13:57;;;;;;;27.90;12.07;;;;;;;6.16;79.62;97124.97;5039080;28;20229;-71
2021/10/10 06:16:24;;;;;;;28.73;13.30;;;;;;;6.05;80.14;97130.25;5037705;28;20771;-72
2021/10/10 06:18:50;;;;;;;26.47;11.60;;;;;;;6.22;80.51;97126.22;5039158;28;20225;-71
2021/10/10 06:21:17;;;;;;;29.80;13.53;;;;;;;6.07;80.97;97130.13;5040141;28;20205;-71
2021/10/10 06:23:43;;;;;;;32.57;13.13;;;;;;;6.21;80.67;97130.66;5038777;28;20217;-71
2021/10/10 06:26:10;;;;;;;31.73;13.50;;;;;;;6.30;80.82;97136.88;5038163;28;20224;-71
2021/10/10 06:28:36;;;;;;;33.37;13.47;;;;;;;6.36;82.63;97139.81;5040121;28;20220;-71
2021/10/10 06:31:04;;;;;;;26.93;13.50;;;;;;;6.48;81.97;97133.53;5038844;28;20216;-72
2021/10/10 06:33:31;;;;;;;30.40;13.23;;;;;;;6.42;81.76;97128.81;5038391;28;20214;-72
2021/10/10 06:35:57;;;;;;;33.90;13.83;;;;;;;6.36;82.35;97142.41;5038689;28;20212;-72
2021/10/10 06:38:24;;;;;;;32.47;13.93;;;;;;;6.48;82.52;97133.53;5038788;28;20225;-72
2021/10/10 06:40:50;;;;;;;27.87;13.33;;;;;;;6.66;82.78;97137.22;5038056;28;20197;-71
2021/10/10 06:43:17;;;;;;;32.73;14.80;;;;;;;6.81;83.77;97130.63;5037360;28;20212;-72
2021/10/10 06:45:43;;;;;;;32.07;15.07;;;;;;;6.82;83.09;97141.00;5037862;28;20201;-71
2021/10/10 06:48:11;;;;;;;33.90;14.97;;;;;;;7.15;82.40;97129.38;5037351;28;20200;-72
2021/10/10 06:50:38;;;;;;;32.77;14.70;;;;;;;6.96;83.33;97129.31;5038331;28;20209;-72
2021/10/10 06:53:04;;;;;;;36.73;15.60;;;;;;;7.16;82.71;97136.28;5038021;28;20688;-72
2021/10/10 06:55:31;;;;;;;30.03;15.03;;;;;;;7.32;82.98;97138.22;5037338;28;20229;-72
2021/10/10 06:57:57;;;;;;;32.70;15.63;;;;;;;7.37;84.26;97138.66;5038392;28;20568;-72
2021/10/10 07:00:24;;;;;;;28.70;15.20;;;;;;;7.52;84.80;97136.47;5038463;28;20212;-72
2021/10/10 07:02:51;;;;;;;40.80;17.57;;;;;;;7.58;85.32;97139.34;5038407;28;20216;-72
2021/10/10 07:05:19;;;;;;;38.20;17.53;;;;;;;7.89;86.61;97143.50;5037926;28;20225;-72
2021/10/10 07:07:46;;;;;;;39.97;18.93;;;;;;;7.77;88.46;97138.56;5037190;28;20216;-72
2021/10/10 07:10:13;;;;;;;38.93;19.50;;;;;;;7.80;89.49;97143.50;5037997;28;20213;-72
2021/10/10 07:12:39;;;;;;;39.33;19.27;;;;;;;7.86;89.52;97146.41;5038018;28;20715;-72
2021/10/10 07:15:08;;;;;;;38.77;19.17;;;;;;;8.23;88.63;97150.00;5037344;28;20240;-72
2021/10/10 07:17:35;;;;;;;40.73;19.70;;;;;;;8.13;88.72;97157.03;5036180;28;20205;-72
2021/10/10 07:20:04;;;;;;;40.73;19.57;;;;;;;8.12;88.67;97144.88;5038161;28;20273;-72
2021/10/10 07:22:43;;;;;;;41.83;19.20;;;;;;;8.23;89.02;97144.75;5038215;28;20205;-72
2021/10/10 07:25:10;;;;;;;37.80;18.27;;;;;;;8.40;87.59;97146.66;5037755;28;20221;-72
2021/10/10 07:27:39;;;;;;;39.43;18.50;;;;;;;8.50;88.82;97146.50;5036674;28;20210;-72
2021/10/10 07:30:07;;;;;;;43.50;19.07;;;;;;;8.64;88.26;97148.66;5038667;28;20602;-72
2021/10/10 07:32:34;;;;;;;40.47;18.30;;;;;;;8.75;87.76;97151.09;5037519;28;20223;-72
2021/10/10 07:35:01;;;;;;;38.23;17.50;;;;;;;8.70;87.95;97148.06;5037984;28;20253;-72
2021/10/10 07:37:27;;;;;;;36.60;17.33;;;;;;;8.71;88.04;97152.38;5036883;28;20208;-72
2021/10/10 07:39:55;;;;;;;36.03;17.77;;;;;;;9.00;87.49;97152.25;5037548;28;20221;-72
2021/10/10 07:42:22;;;;;;;36.50;17.37;;;;;;;8.50;88.68;97151.75;5036828;28;20205;-72
2021/10/10 07:44:50;;;;;;;39.50;18.03;;;;;;;8.52;89.17;97155.03;5037373;28;20248;-72
2021/10/10 07:47:28;;;;;;;37.20;18.43;;;;;;;8.98;88.22;97152.41;5036243;28;20198;-72
2021/10/10 07:49:55;;;;;;;34.20;17.17;;;;;;;8.81;88.63;97153.16;5036709;28;20212;-72
2021/10/10 07:52:24;;;;;;;35.90;17.27;;;;;;;9.08;88.91;97151.38;5036708;28;20202;-72
2021/10/10 07:54:50;;;;;;;34.23;17.60;;;;;;;9.18;88.14;97148.72;5034133;28;20312;-72
2021/10/10 07:57:18;;;;;;;35.43;17.40;;;;;;;9.36;87.56;97144.31;5035886;28;20208;-72
2021/10/10 07:59:45;;;;;;;70.13;18.40;;;;;;;9.51;89.12;97153.34;5035640;28;21202;-72
2021/10/10 08:02:11;;;;;;;34.13;14.80;;;;;;;9.70;82.36;97160.13;5036095;28;20235;-72
2021/10/10 08:04:38;;;;;;;34.20;15.20;;;;;;;9.86;81.70;97154.19;5036200;28;20221;-72
2021/10/10 08:07:04;;;;;;;29.10;13.77;;;;;;;9.93;79.06;97157.91;5036050;28;20197;-72
2021/10/10 08:09:31;;;;;;;29.57;14.03;;;;;;;9.94;80.86;97149.84;5037533;28;20771;-72
2021/10/10 08:11:57;;;;;;;30.30;14.23;;;;;;;10.07;79.32;97154.75;5036352;28;20751;-72
2021/10/10 08:14:25;;;;;;;34.40;14.80;;;;;;;10.17;78.77;97145.81;5036650;28;20221;-72
2021/10/10 08:16:52;;;;;;;28.80;14.87;;;;;;;10.14;78.61;97147.91;5036034;28;20216;-72
2021/10/10 08:19:18;;;;;;;28.00;13.67;;;;;;;10.16;78.56;97154.69;5036468;28;20230;-72
2021/10/10 08:21:45;;;;;;;28.70;13.67;;;;;;;10.22;77.60;97156.72;5037054;28;20201;-72
2021/10/10 08:24:12;;;;;;;29.47;13.70;;;;;;;10.28;76.46;97153.44;5037619;28;20228;-72
2021/10/10 08:26:38;;;;;;;25.53;13.13;;;;;;;10.44;76.48;97154.41;5036155;28;20205;-72
2021/10/10 08:29:05;;;;;;;31.87;14.70;;;;;;;10.48;75.69;97154.94;5036984;28;20210;-71
2021/10/10 08:31:33;;;;;;;30.40;14.00;;;;;;;10.68;75.59;97151.09;5037361;28;20212;-71
2021/10/10 08:33:59;;;;;;;29.00;13.43;;;;;;;10.57;76.51;97144.28;5036855;28;20229;-71
2021/10/10 08:36:26;;;;;;;30.83;13.87;;;;;;;10.66;74.00;97150.44;5035676;28;21312;-71
2021/10/10 08:38:52;;;;;;;25.40;12.97;;;;;;;10.65;73.71;97146.94;5037223;28;20236;-70
2021/10/10 08:41:24;;;;;;;31.03;13.43;;;;;;;10.90;73.47;97145.31;5037333;28;20220;-71
2021/10/10 08:43:53;;;;;;;26.77;12.60;;;;;;;10.90;73.91;97147.94;5037207;28;20231;-70
2021/10/10 08:46:24;;;;;;;28.20;13.27;;;;;;;10.95;73.26;97151.75;5034923;28;20236;-71
2021/10/10 08:48:52;;;;;;;28.67;13.10;;;;;;;11.25;73.10;97146.78;5035884;28;20194;-71
2021/10/10 08:51:19;;;;;;;29.13;12.57;;;;;;;11.49;74.50;97151.31;5037013;28;20212;-71
2021/10/10 08:53:47;;;;;;;25.03;12.67;;;;;;;11.31;71.39;97156.69;5036148;28;20217;-71
2021/10/10 08:56:14;;;;;;;31.77;11.67;;;;;;;11.55;72.99;97148.06;5035960;28;20212;-71
2021/10/10 08:58:44;;;;;;;30.50;12.23;;;;;;;11.73;71.37;97152.22;5036173;28;20228;-71
2021/10/10 09:01:16;;;;;;;26.93;13.13;;;;;;;11.77;72.26;97150.91;5036364;28;20205;-71
2021/10/10 09:03:48;;;;;;;29.47;13.17;;;;;;;11.75;75.23;97155.56;5036328;28;20228;-71
2021/10/10 09:06:15;;;;;;;28.17;13.30;;;;;;;11.91;75.26;97155.56;5035304;28;20302;-71
2021/10/10 09:08:42;;;;;;;24.70;13.07;;;;;;;11.82;72.88;97145.97;5035887;28;20418;-71
2021/10/10 09:11:10;;;;;;;25.30;13.17;;;;;;;11.87;72.72;97148.97;5036141;28;20205;-71
2021/10/10 09:13:40;;;;;;;24.37;12.33;;;;;;;11.79;72.77;97148.94;5036217;28;20279;-71
2021/10/10 09:16:08;;;;;;;28.40;12.33;;;;;;;12.09;73.24;97143.03;5035448;28;20209;-71
2021/10/10 09:18:38;;;;;;;23.87;12.10;;;;;;;12.07;71.21;97139.75;5035849;28;20735;-71
2021/10/10 09:21:22;;;;;;;30.47;12.63;;;;;;;12.46;68.68;97142.38;5035023;28;20232;-71
2021/10/10 09:23:50;;;;;;;29.87;12.37;;;;;;;12.51;69.13;97139.22;5035627;28;20221;-71
2021/10/10 09:26:18;;;;;;;28.50;11.77;;;;;;;12.52;67.39;97133.75;5034652;28;20205;-71
2021/10/10 09:28:45;;;;;;;23.10;11.33;;;;;;;12.55;66.22;97140.53;5036021;28;20299;-71
2021/10/10 09:31:13;;;;;;;25.60;11.40;;;;;;;12.66;65.17;97143.66;5036040;28;20212;-71
2021/10/10 09:33:43;;;;;;;24.67;11.43;;;;;;;12.65;64.81;97147.28;5035330;28;20255;-71
2021/10/10 09:36:16;;;;;;;25.63;11.80;;;;;;;12.71;65.74;97144.00;5034172;28;20212;-71
2021/10/10 09:38:49;;;;;;;25.20;10.97;;;;;;;12.78;65.50;97132.56;5035731;28;20258;-71
2021/10/10 09:41:21;;;;;;;26.80;11.43;;;;;;;12.97;67.46;97136.66;5034822;28;21107;-72
2021/10/10 09:44:02;;;;;;;28.03;11.03;;;;;;;13.58;65.16;97130.47;5035081;28;20224;-71
2021/10/10 09:46:29;;;;;;;20.90;11.20;;;;;;;13.27;66.01;97136.75;5033952;28;20206;-71
2021/10/10 09:48:56;;;;;;;29.50;12.53;;;;;;;13.32;67.04;97130.94;5033617;28;20216;-71
2021/10/10 09:51:33;;;;;;;32.03;13.07;;;;;;;13.98;66.37;97134.72;5034807;28;20296;-72
2021/10/10 09:54:03;;;;;;;25.77;12.90;;;;;;;13.93;66.08;97131.75;5036210;28;20230;-72
2021/10/10 09:56:31;;;;;;;28.50;13.87;;;;;;;13.33;68.95;97129.94;5034459;28;20201;-71
2021/10/10 09:58:57;;;;;;;30.67;13.33;;;;;;;13.07;68.50;97134.66;5033548;28;20233;-72
2021/10/10 10:01:25;;;;;;;26.83;13.15;;;;;;;13.52;68.24;97127.69;5035338;28;20213;-72
2021/10/10 10:04:03;;;;;;;24.07;12.87;;;;;;;13.50;68.91;97130.53;5035973;28;20225;-72
2021/10/10 10:06:33;;;;;;;25.63;12.50;;;;;;;13.55;68.19;97132.63;5034719;28;20287;-72
2021/10/10 10:09:02;;;;;;;27.60;13.00;;;;;;;13.22;68.55;97135.63;5033017;28;20729;-71
2021/10/10 10:11:33;;;;;;;27.87;13.73;;;;;;;13.56;66.69;97129.00;5035956;28;20335;-71
2021/10/10 10:14:02;;;;;;;160.37;17.50;;;;;;;13.28;67.87;97129.63;5035721;28;20225;-72
2021/10/10 10:16:31;;;;;;;20.25;11.20;;;;;;;13.75;66.81;97133.88;5035129;28;20245;-72
2021/10/10 10:18:59;;;;;;;23.77;11.53;;;;;;;13.57;65.33;97128.00;5035308;28;20201;-72
2021/10/10 10:21:28;;;;;;;27.23;11.37;;;;;;;13.44;67.38;97130.38;5035741;28;20197;-72
2021/10/10 10:23:59;;;;;;;19.40;9.85;;;;;;;14.04;64.88;97132.19;5037828;28;20317;-71
2021/10/10 10:26:28;;;;;;;24.97;10.93;;;;;;;13.75;66.38;97139.97;5038414;28;20225;-71
2021/10/10 10:28:57;;;;;;;26.00;12.20;;;;;;;13.88;64.72;97134.91;5038917;28;20209;-71
2021/10/10 10:31:24;;;;;;;24.90;11.53;;;;;;;13.20;66.92;97132.31;5039481;28;20206;-72
2021/10/10 10:33:54;;;;;;;23.00;11.23;;;;;;;13.50;65.23;97130.53;5039172;28;20708;-72
2021/10/10 10:36:49;;;;;;;28.23;11.47;;;;;;;14.03;64.77;97139.28;5038202;28;20233;-71
2021/10/10 10:39:43;;;;;;;26.43;11.17;;;;;;;13.86;64.11;97136.94;5038393;28;20221;-71
2021/10/10 10:42:11;;;;;;;25.65;11.38;;;;;;;13.60;65.05;97138.25;5038722;28;20248;-72
2021/10/10 10:44:42;;;;;;;19.52;10.73;;;;;;;13.28;66.08;97140.22;5038246;28;20236;-71
2021/10/10 10:47:11;;;;;;;22.93;10.97;;;;;;;13.34;66.30;97129.78;5038263;28;20220;-71
2021/10/10 10:50:00;;;;;;;22.35;10.55;;;;;;;13.81;63.04;97133.16;5038953;28;20204;-71
2021/10/10 10:52:29;;;;;;;21.57;10.53;;;;;;;13.90;63.03;97132.09;5035655;28;20205;-71
2021/10/10 10:54:58;;;;;;;22.10;11.30;;;;;;;13.98;63.70;97138.19;5038632;28;20237;-71
2021/10/10 10:57:28;;;;;;;25.27;10.80;;;;;;;14.18;61.51;97140.22;5037835;28;20205;-71
2021/10/10 11:00:05;;;;;;;24.05;10.63;;;;;;;14.36;62.53;97140.72;5038687;28;20236;-71
2021/10/10 11:02:52;;;;;;;24.30;10.35;;;;;;;14.10;61.86;97136.78;5038923;28;20205;-71
2021/10/10 11:05:33;;;;;;;26.75;11.18;;;;;;;13.96;61.20;97128.75;5038602;28;20220;-71
2021/10/10 11:08:00;;;;;;;20.77;10.60;;;;;;;14.07;62.16;97123.88;5034984;28;20598;-71
2021/10/10 11:10:27;;;;;;;21.65;10.48;;;;;;;13.62;62.77;97129.13;5038606;28;20193;-71
2021/10/10 11:12:56;;;;;;;20.10;10.43;;;;;;;13.97;62.42;97123.28;5038912;28;20216;-71
2021/10/10 11:15:25;;;;;;;23.98;10.70;;;;;;;14.02;61.85;97127.03;5038049;28;20283;-71
2021/10/10 11:17:55;;;;;;;23.17;11.43;;;;;;;14.12;61.09;97126.84;5038225;28;20217;-71
2021/10/10 11:20:22;;;;;;;25.67;11.02;;;;;;;13.67;63.17;97123.28;5037982;28;20257;-71
2021/10/10 11:22:49;;;;;;;23.42;10.15;;;;;;;13.79;61.62;97120.06;5037376;28;20200;-71
2021/10/10 11:25:15;;;;;;;28.75;11.82;;;;;;;13.90;62.01;97117.03;5036746;28;20312;-71